sensor_id;sensor_type;location;lat;lon;timestamp;pressure;altitude;pressure_sealevel;temperature;humidity
69306;BME280;56427;51.580;4.656;2023-04-26T00:00:17;101957.66;;;2.10;100.00
69306;BME280;56427;51.580;4.656;2023-04-26T00:02:42;101954.56;;;1.98;100.00
69306;BME280;56427;51.580;4.656;2023-04-26T00:05:08;101961.94;;;2.09;100.00
69306;BME280;56427;51.580;4.656;2023-04-26T00:07:33;101956.81;;;2.09;100.00
69306;BME280;56427;51.580;4.656;2023-04-26T00:09:59;101956.78;;;2.11;100.00
69306;BME280;56427;51.580;4.656;2023-04-26T00:12:25;101960.91;;;2.15;100.00
69306;BME280;56427;51.580;4.656;2023-04-26T00:14:50;101958.44;;;2.12;100.00
69306;BME280;56427;51.580;4.656;2023-04-26T00:17:16;101965.47;;;2.05;100.00
69306;BME280;56427;51.580;4.656;2023-04-26T00:19:41;101967.63;;;2.19;100.00
69306;BME280;56427;51.580;4.656;2023-04-26T00:22:06;101969.81;;;2.31;100.00
69306;BME280;56427;51.580;4.656;2023-04-26T00:24:33;101971.97;;;2.15;100.00
69306;BME280;56427;51.580;4.656;2023-04-26T00:26:58;101971.53;;;2.02;100.00
69306;BME280;56427;51.580;4.656;2023-04-26T00:29:25;101970.34;;;1.84;100.00
69306;BME280;56427;51.580;4.656;2023-04-26T00:31:51;101970.91;;;1.64;100.00
69306;BME280;56427;51.580;4.656;2023-04-26T00:34:16;101980.94;;;1.39;100.00
69306;BME280;56427;51.580;4.656;2023-04-26T00:36:42;101975.03;;;1.37;100.00
69306;BME280;56427;51.580;4.656;2023-04-26T00:39:07;101971.41;;;1.44;100.00
69306;BME280;56427;51.580;4.656;2023-04-26T00:41:33;101976.31;;;1.52;100.00
69306;BME280;56427;51.580;4.656;2023-04-26T00:43:59;101968.50;;;1.58;100.00
69306;BME280;56427;51.580;4.656;2023-04-26T00:46:24;101965.53;;;1.72;100.00
69306;BME280;56427;51.580;4.656;2023-04-26T00:48:53;101961.16;;;1.76;100.00
69306;BME280;56427;51.580;4.656;2023-04-26T00:51:18;101961.72;;;1.87;100.00
69306;BME280;56427;51.580;4.656;2023-04-26T00:53:44;101959.28;;;1.51;100.00
69306;BME280;56427;51.580;4.656;2023-04-26T00:56:11;101971.78;;;1.31;100.00
69306;BME280;56427;51.580;4.656;2023-04-26T00:58:37;101962.00;;;1.14;100.00
69306;BME280;56427;51.580;4.656;2023-04-26T01:01:03;101964.28;;;0.90;100.00
69306;BME280;56427;51.580;4.656;2023-04-26T01:03:28;101959.06;;;0.95;100.00
69306;BME280;56427;51.580;4.656;2023-04-26T01:05:54;101965.41;;;0.78;100.00
69306;BME280;56427;51.580;4.656;2023-04-26T01:08:20;101956.28;;;0.68;100.00
69306;BME280;56427;51.580;4.656;2023-04-26T01:10:47;101964.47;;;0.82;100.00
69306;BME280;56427;51.580;4.656;2023-04-26T01:13:13;101961.72;;;0.90;100.00
69306;BME280;56427;51.580;4.656;2023-04-26T01:15:46;101962.28;;;1.01;100.00
69306;BME280;56427;51.580;4.656;2023-04-26T01:18:12;101969.06;;;1.04;100.00
69306;BME280;56427;51.580;4.656;2023-04-26T01:20:40;101972.22;;;1.14;100.00
69306;BME280;56427;51.580;4.656;2023-04-26T01:23:07;101963.00;;;1.06;100.00
69306;BME280;56427;51.580;4.656;2023-04-26T01:25:34;101959.69;;;1.03;100.00
69306;BME280;56427;51.580;4.656;2023-04-26T01:27:59;101973.63;;;1.25;100.00
69306;BME280;56427;51.580;4.656;2023-04-26T01:30:25;101969.22;;;1.31;100.00
69306;BME280;56427;51.580;4.656;2023-04-26T01:32:50;101974.28;;;1.34;100.00
69306;BME280;56427;51.580;4.656;2023-04-26T01:35:16;101961.47;;;1.34;100.00
69306;BME280;56427;51.580;4.656;2023-04-26T01:37:42;101957.03;;;1.40;100.00
69306;BME280;56427;51.580;4.656;2023-04-26T01:40:07;101959.47;;;1.45;100.00
69306;BME280;56427;51.580;4.656;2023-04-26T01:42:34;101956.72;;;1.51;100.00
69306;BME280;56427;51.580;4.656;2023-04-26T01:44:59;101970.34;;;1.53;100.00
69306;BME280;56427;51.580;4.656;2023-04-26T01:47:24;101961.69;;;1.57;100.00
69306;BME280;56427;51.580;4.656;2023-04-26T01:49:50;101961.72;;;1.56;100.00
69306;BME280;56427;51.580;4.656;2023-04-26T01:52:16;101963.56;;;1.51;100.00
69306;BME280;56427;51.580;4.656;2023-04-26T01:54:41;101964.59;;;1.45;100.00
69306;BME280;56427;51.580;4.656;2023-04-26T01:57:06;101964.00;;;1.35;100.00
69306;BME280;56427;51.580;4.656;2023-04-26T01:59:32;101963.06;;;1.38;100.00
69306;BME280;56427;51.580;4.656;2023-04-26T02:01:57;101958.75;;;1.40;100.00
69306;BME280;56427;51.580;4.656;2023-04-26T02:04:23;101960.22;;;1.49;100.00
69306;BME280;56427;51.580;4.656;2023-04-26T02:06:48;101962.19;;;1.70;100.00
69306;BME280;56427;51.580;4.656;2023-04-26T02:09:13;101958.75;;;1.71;100.00
69306;BME280;56427;51.580;4.656;2023-04-26T02:11:39;101954.47;;;1.40;100.00
69306;BME280;56427;51.580;4.656;2023-04-26T02:14:05;101957.88;;;1.08;100.00
69306;BME280;56427;51.580;4.656;2023-04-26T02:16:30;101960.09;;;0.87;100.00
69306;BME280;56427;51.580;4.656;2023-04-26T02:18:57;101960.38;;;0.75;100.00
69306;BME280;56427;51.580;4.656;2023-04-26T02:21:23;101957.63;;;0.47;100.00
69306;BME280;56427;51.580;4.656;2023-04-26T02:23:49;101962.69;;;0.48;100.00
69306;BME280;56427;51.580;4.656;2023-04-26T02:26:14;101961.88;;;0.48;100.00
69306;BME280;56427;51.580;4.656;2023-04-26T02:28:40;101958.53;;;0.44;100.00
69306;BME280;56427;51.580;4.656;2023-04-26T02:31:06;101957.31;;;0.59;100.00
69306;BME280;56427;51.580;4.656;2023-04-26T02:33:32;101960.50;;;0.69;100.00
69306;BME280;56427;51.580;4.656;2023-04-26T02:35:57;101961.88;;;0.48;100.00
69306;BME280;56427;51.580;4.656;2023-04-26T02:38:23;101949.75;;;0.56;100.00
69306;BME280;56427;51.580;4.656;2023-04-26T02:40:57;101951.22;;;0.66;100.00
69306;BME280;56427;51.580;4.656;2023-04-26T02:43:22;101952.16;;;0.62;100.00
69306;BME280;56427;51.580;4.656;2023-04-26T02:45:48;101950.69;;;0.52;100.00
69306;BME280;56427;51.580;4.656;2023-04-26T02:48:13;101946.69;;;0.42;100.00
69306;BME280;56427;51.580;4.656;2023-04-26T02:50:39;101955.00;;;0.50;100.00
69306;BME280;56427;51.580;4.656;2023-04-26T02:53:04;101943.16;;;0.46;100.00
69306;BME280;56427;51.580;4.656;2023-04-26T02:55:29;101939.78;;;0.45;100.00
69306;BME280;56427;51.580;4.656;2023-04-26T02:57:55;101935.56;;;0.43;100.00
69306;BME280;56427;51.580;4.656;2023-04-26T03:00:20;101940.41;;;0.17;100.00
69306;BME280;56427;51.580;4.656;2023-04-26T03:02:46;101946.81;;;0.35;100.00
69306;BME280;56427;51.580;4.656;2023-04-26T03:05:12;101945.75;;;0.44;100.00
69306;BME280;56427;51.580;4.656;2023-04-26T03:07:37;101935.50;;;0.46;100.00
69306;BME280;56427;51.580;4.656;2023-04-26T03:10:03;101942.91;;;0.58;100.00
69306;BME280;56427;51.580;4.656;2023-04-26T03:12:29;101941.09;;;0.62;100.00
69306;BME280;56427;51.580;4.656;2023-04-26T03:14:55;101938.78;;;0.51;100.00
69306;BME280;56427;51.580;4.656;2023-04-26T03:17:20;101938.38;;;0.32;100.00
69306;BME280;56427;51.580;4.656;2023-04-26T03:19:46;101943.38;;;0.38;100.00
69306;BME280;56427;51.580;4.656;2023-04-26T03:22:11;101939.97;;;0.36;100.00
69306;BME280;56427;51.580;4.656;2023-04-26T03:24:41;101943.28;;;0.41;100.00
69306;BME280;56427;51.580;4.656;2023-04-26T03:27:07;101931.22;;;0.48;100.00
69306;BME280;56427;51.580;4.656;2023-04-26T03:29:32;101934.44;;;0.56;100.00
69306;BME280;56427;51.580;4.656;2023-04-26T03:31:57;101928.25;;;0.65;100.00
69306;BME280;56427;51.580;4.656;2023-04-26T03:34:22;101932.41;;;0.69;100.00
69306;BME280;56427;51.580;4.656;2023-04-26T03:36:48;101933.19;;;0.72;100.00
69306;BME280;56427;51.580;4.656;2023-04-26T03:39:13;101938.44;;;0.66;100.00
69306;BME280;56427;51.580;4.656;2023-04-26T03:41:38;101929.81;;;0.70;100.00
69306;BME280;56427;51.580;4.656;2023-04-26T03:44:04;101934.09;;;0.70;100.00
69306;BME280;56427;51.580;4.656;2023-04-26T03:46:30;101926.78;;;0.56;100.00
69306;BME280;56427;51.580;4.656;2023-04-26T03:48:55;101931.78;;;0.59;100.00
69306;BME280;56427;51.580;4.656;2023-04-26T03:51:20;101931.84;;;0.58;100.00
69306;BME280;56427;51.580;4.656;2023-04-26T03:53:46;101926.66;;;0.59;100.00
69306;BME280;56427;51.580;4.656;2023-04-26T03:56:13;101927.13;;;0.41;100.00
69306;BME280;56427;51.580;4.656;2023-04-26T03:58:38;101925.53;;;0.36;100.00
69306;BME280;56427;51.580;4.656;2023-04-26T04:01:03;101926.06;;;0.49;100.00
69306;BME280;56427;51.580;4.656;2023-04-26T04:03:29;101923.72;;;0.40;100.00
69306;BME280;56427;51.580;4.656;2023-04-26T04:05:54;101923.47;;;0.51;100.00
69306;BME280;56427;51.580;4.656;2023-04-26T04:08:20;101932.56;;;0.63;100.00
69306;BME280;56427;51.580;4.656;2023-04-26T04:10:45;101924.25;;;0.54;100.00
69306;BME280;56427;51.580;4.656;2023-04-26T04:13:11;101932.81;;;0.52;100.00
69306;BME280;56427;51.580;4.656;2023-04-26T04:15:36;101938.75;;;0.52;100.00
69306;BME280;56427;51.580;4.656;2023-04-26T04:18:01;101930.94;;;0.59;100.00
69306;BME280;56427;51.580;4.656;2023-04-26T04:20:27;101938.28;;;0.74;100.00
69306;BME280;56427;51.580;4.656;2023-04-26T04:22:53;101937.50;;;0.69;100.00
69306;BME280;56427;51.580;4.656;2023-04-26T04:25:18;101937.50;;;0.69;100.00
69306;BME280;56427;51.580;4.656;2023-04-26T04:27:47;101926.91;;;0.50;100.00
69306;BME280;56427;51.580;4.656;2023-04-26T04:30:12;101932.88;;;0.49;100.00
69306;BME280;56427;51.580;4.656;2023-04-26T04:32:38;101938.34;;;0.33;100.00
69306;BME280;56427;51.580;4.656;2023-04-26T04:35:06;101941.88;;;0.28;100.00
69306;BME280;56427;51.580;4.656;2023-04-26T04:37:32;101941.47;;;0.46;100.00
69306;BME280;56427;51.580;4.656;2023-04-26T04:39:58;101947.03;;;0.98;100.00
69306;BME280;56427;51.580;4.656;2023-04-26T04:42:23;101946.00;;;1.05;100.00
69306;BME280;56427;51.580;4.656;2023-04-26T04:44:51;101942.44;;;1.75;100.00
69306;BME280;56427;51.580;4.656;2023-04-26T04:47:16;101945.28;;;2.24;100.00
69306;BME280;56427;51.580;4.656;2023-04-26T04:49:42;101946.81;;;2.56;100.00
69306;BME280;56427;51.580;4.656;2023-04-26T04:52:07;101950.69;;;2.70;100.00
69306;BME280;56427;51.580;4.656;2023-04-26T04:54:33;101940.16;;;3.53;100.00
69306;BME280;56427;51.580;4.656;2023-04-26T04:56:58;101935.97;;;3.98;100.00
69306;BME280;56427;51.580;4.656;2023-04-26T04:59:24;101933.03;;;3.85;100.00
69306;BME280;56427;51.580;4.656;2023-04-26T05:01:49;101919.59;;;3.78;100.00
69306;BME280;56427;51.580;4.656;2023-04-26T05:04:15;101922.63;;;3.88;100.00
69306;BME280;56427;51.580;4.656;2023-04-26T05:06:41;101927.13;;;3.36;100.00
69306;BME280;56427;51.580;4.656;2023-04-26T05:09:07;101921.53;;;3.72;100.00
69306;BME280;56427;51.580;4.656;2023-04-26T05:11:33;101914.34;;;4.03;100.00
69306;BME280;56427;51.580;4.656;2023-04-26T05:13:58;101915.13;;;4.05;100.00
69306;BME280;56427;51.580;4.656;2023-04-26T05:16:24;101913.34;;;4.08;100.00
69306;BME280;56427;51.580;4.656;2023-04-26T05:18:50;101923.41;;;4.36;100.00
69306;BME280;56427;51.580;4.656;2023-04-26T05:21:15;101923.94;;;4.44;100.00
69306;BME280;56427;51.580;4.656;2023-04-26T05:23:41;101928.09;;;4.69;100.00
69306;BME280;56427;51.580;4.656;2023-04-26T05:26:09;101933.22;;;5.30;100.00
69306;BME280;56427;51.580;4.656;2023-04-26T05:28:34;101933.25;;;5.49;100.00
69306;BME280;56427;51.580;4.656;2023-04-26T05:31:00;101931.84;;;6.18;100.00
69306;BME280;56427;51.580;4.656;2023-04-26T05:33:26;101934.34;;;6.20;100.00
69306;BME280;56427;51.580;4.656;2023-04-26T05:35:52;101938.56;;;5.84;100.00
69306;BME280;56427;51.580;4.656;2023-04-26T05:38:19;101933.50;;;5.04;100.00
69306;BME280;56427;51.580;4.656;2023-04-26T05:40:44;101931.81;;;4.82;100.00
69306;BME280;56427;51.580;4.656;2023-04-26T05:43:10;101932.03;;;4.55;100.00
69306;BME280;56427;51.580;4.656;2023-04-26T05:45:36;101942.50;;;4.29;100.00
69306;BME280;56427;51.580;4.656;2023-04-26T05:48:01;101945.53;;;3.94;100.00
69306;BME280;56427;51.580;4.656;2023-04-26T05:50:26;101956.72;;;3.93;100.00
69306;BME280;56427;51.580;4.656;2023-04-26T05:52:52;101948.63;;;3.80;100.00
69306;BME280;56427;51.580;4.656;2023-04-26T05:55:18;101957.16;;;4.27;100.00
69306;BME280;56427;51.580;4.656;2023-04-26T05:57:44;101959.47;;;4.55;100.00
69306;BME280;56427;51.580;4.656;2023-04-26T06:00:10;101966.47;;;5.14;100.00
69306;BME280;56427;51.580;4.656;2023-04-26T06:02:36;101959.06;;;5.48;100.00
69306;BME280;56427;51.580;4.656;2023-04-26T06:05:02;101963.19;;;5.71;100.00
69306;BME280;56427;51.580;4.656;2023-04-26T06:07:29;101963.13;;;5.92;100.00
69306;BME280;56427;51.580;4.656;2023-04-26T06:09:54;101961.63;;;6.25;100.00
69306;BME280;56427;51.580;4.656;2023-04-26T06:12:20;101962.94;;;5.96;100.00
69306;BME280;56427;51.580;4.656;2023-04-26T06:14:45;101969.81;;;5.37;100.00
69306;BME280;56427;51.580;4.656;2023-04-26T06:17:11;101974.00;;;5.79;100.00
69306;BME280;56427;51.580;4.656;2023-04-26T06:19:36;101972.94;;;5.83;100.00
69306;BME280;56427;51.580;4.656;2023-04-26T06:22:02;101980.09;;;5.58;100.00
69306;BME280;56427;51.580;4.656;2023-04-26T06:24:27;101975.59;;;5.82;100.00
69306;BME280;56427;51.580;4.656;2023-04-26T06:26:52;101975.22;;;5.70;100.00
69306;BME280;56427;51.580;4.656;2023-04-26T06:29:20;101972.94;;;5.64;100.00
69306;BME280;56427;51.580;4.656;2023-04-26T06:31:45;101971.22;;;6.22;100.00
69306;BME280;56427;51.580;4.656;2023-04-26T06:34:11;101976.94;;;6.10;100.00
69306;BME280;56427;51.580;4.656;2023-04-26T06:36:36;101968.94;;;5.97;100.00
69306;BME280;56427;51.580;4.656;2023-04-26T06:39:02;101962.13;;;5.75;100.00
69306;BME280;56427;51.580;4.656;2023-04-26T06:41:28;101966.28;;;5.79;100.00
69306;BME280;56427;51.580;4.656;2023-04-26T06:43:53;101961.91;;;6.00;100.00
69306;BME280;56427;51.580;4.656;2023-04-26T06:46:18;101967.25;;;6.15;100.00
69306;BME280;56427;51.580;4.656;2023-04-26T06:48:44;101970.81;;;6.12;100.00
69306;BME280;56427;51.580;4.656;2023-04-26T06:51:09;101974.56;;;6.24;100.00
69306;BME280;56427;51.580;4.656;2023-04-26T06:53:35;101963.72;;;5.98;100.00
69306;BME280;56427;51.580;4.656;2023-04-26T06:56:02;101963.44;;;6.04;100.00
69306;BME280;56427;51.580;4.656;2023-04-26T06:58:28;101965.06;;;6.07;100.00
69306;BME280;56427;51.580;4.656;2023-04-26T07:00:53;101965.47;;;6.17;100.00
69306;BME280;56427;51.580;4.656;2023-04-26T07:03:19;101963.63;;;6.00;100.00
69306;BME280;56427;51.580;4.656;2023-04-26T07:05:44;101965.47;;;5.98;100.00
69306;BME280;56427;51.580;4.656;2023-04-26T07:08:10;101971.38;;;6.19;100.00
69306;BME280;56427;51.580;4.656;2023-04-26T07:10:37;101976.38;;;6.22;100.00
69306;BME280;56427;51.580;4.656;2023-04-26T07:13:03;101968.38;;;6.09;100.00
69306;BME280;56427;51.580;4.656;2023-04-26T07:15:28;101969.91;;;6.13;100.00
69306;BME280;56427;51.580;4.656;2023-04-26T07:17:54;101964.69;;;6.15;100.00
69306;BME280;56427;51.580;4.656;2023-04-26T07:20:19;101962.47;;;6.07;100.00
69306;BME280;56427;51.580;4.656;2023-04-26T07:22:46;101964.88;;;6.10;100.00
69306;BME280;56427;51.580;4.656;2023-04-26T07:25:12;101972.28;;;6.18;100.00
69306;BME280;56427;51.580;4.656;2023-04-26T07:27:40;101960.78;;;6.06;100.00
69306;BME280;56427;51.580;4.656;2023-04-26T07:30:07;101969.53;;;6.40;100.00
69306;BME280;56427;51.580;4.656;2023-04-26T07:32:32;101977.22;;;6.59;100.00
69306;BME280;56427;51.580;4.656;2023-04-26T07:34:57;101979.94;;;6.56;100.00
69306;BME280;56427;51.580;4.656;2023-04-26T07:37:23;101983.66;;;6.68;100.00
69306;BME280;56427;51.580;4.656;2023-04-26T07:39:48;101980.88;;;6.55;100.00
69306;BME280;56427;51.580;4.656;2023-04-26T07:42:14;101980.41;;;6.64;100.00
69306;BME280;56427;51.580;4.656;2023-04-26T07:44:39;101977.75;;;6.66;100.00
69306;BME280;56427;51.580;4.656;2023-04-26T07:47:10;101977.47;;;6.72;100.00
69306;BME280;56427;51.580;4.656;2023-04-26T07:49:39;101975.25;;;6.64;100.00
69306;BME280;56427;51.580;4.656;2023-04-26T07:52:04;101977.69;;;6.67;100.00
69306;BME280;56427;51.580;4.656;2023-04-26T07:54:30;101975.28;;;7.50;100.00
69306;BME280;56427;51.580;4.656;2023-04-26T07:56:55;101977.22;;;7.62;100.00
69306;BME280;56427;51.580;4.656;2023-04-26T07:59:21;101980.44;;;7.83;100.00
69306;BME280;56427;51.580;4.656;2023-04-26T08:01:47;101984.19;;;7.44;100.00
69306;BME280;56427;51.580;4.656;2023-04-26T08:04:12;101981.28;;;7.50;100.00
69306;BME280;56427;51.580;4.656;2023-04-26T08:06:38;101986.63;;;7.30;100.00
69306;BME280;56427;51.580;4.656;2023-04-26T08:09:03;101985.44;;;7.53;100.00
69306;BME280;56427;51.580;4.656;2023-04-26T08:11:29;101988.06;;;7.69;100.00
69306;BME280;56427;51.580;4.656;2023-04-26T08:13:55;101988.44;;;7.45;100.00
69306;BME280;56427;51.580;4.656;2023-04-26T08:16:20;101988.31;;;7.64;100.00
69306;BME280;56427;51.580;4.656;2023-04-26T08:18:45;101987.94;;;7.88;100.00
69306;BME280;56427;51.580;4.656;2023-04-26T08:21:11;101980.31;;;7.69;100.00
69306;BME280;56427;51.580;4.656;2023-04-26T08:23:37;101985.53;;;7.85;100.00
69306;BME280;56427;51.580;4.656;2023-04-26T08:26:02;101987.94;;;7.88;100.00
69306;BME280;56427;51.580;4.656;2023-04-26T08:28:28;101984.69;;;8.00;100.00
69306;BME280;56427;51.580;4.656;2023-04-26T08:30:53;101984.03;;;8.28;100.00
69306;BME280;56427;51.580;4.656;2023-04-26T08:33:19;101982.38;;;8.27;100.00
69306;BME280;56427;51.580;4.656;2023-04-26T08:35:44;101983.94;;;8.30;100.00
69306;BME280;56427;51.580;4.656;2023-04-26T08:38:10;101976.44;;;8.25;100.00
69306;BME280;56427;51.580;4.656;2023-04-26T08:40:36;101979.34;;;8.67;100.00
69306;BME280;56427;51.580;4.656;2023-04-26T08:43:01;101974.97;;;8.98;100.00
69306;BME280;56427;51.580;4.656;2023-04-26T08:45:26;101975.50;;;9.48;100.00
69306;BME280;56427;51.580;4.656;2023-04-26T08:47:59;101972.63;;;9.24;100.00
69306;BME280;56427;51.580;4.656;2023-04-26T08:50:32;101964.38;;;8.72;100.00
69306;BME280;56427;51.580;4.656;2023-04-26T08:52:58;101967.00;;;9.46;100.00
69306;BME280;56427;51.580;4.656;2023-04-26T08:55:24;101969.66;;;9.15;97.98
69306;BME280;56427;51.580;4.656;2023-04-26T08:57:50;101964.03;;;8.93;100.00
69306;BME280;56427;51.580;4.656;2023-04-26T09:00:17;101957.53;;;8.71;100.00
69306;BME280;56427;51.580;4.656;2023-04-26T09:02:50;101963.75;;;8.53;100.00
69306;BME280;56427;51.580;4.656;2023-04-26T09:05:17;101965.53;;;8.52;100.00
69306;BME280;56427;51.580;4.656;2023-04-26T09:07:46;101974.78;;;8.24;100.00
69306;BME280;56427;51.580;4.656;2023-04-26T09:10:13;101972.94;;;8.42;100.00
69306;BME280;56427;51.580;4.656;2023-04-26T09:12:43;101964.84;;;8.33;100.00
69306;BME280;56427;51.580;4.656;2023-04-26T09:15:09;101975.41;;;8.60;100.00
69306;BME280;56427;51.580;4.656;2023-04-26T09:17:38;101974.03;;;8.54;100.00
69306;BME280;56427;51.580;4.656;2023-04-26T09:20:28;101967.50;;;8.31;100.00
69306;BME280;56427;51.580;4.656;2023-04-26T09:23:14;101969.00;;;8.35;100.00
69306;BME280;56427;51.580;4.656;2023-04-26T09:25:41;101972.25;;;8.55;100.00
69306;BME280;56427;51.580;4.656;2023-04-26T09:28:20;101955.81;;;8.56;100.00
69306;BME280;56427;51.580;4.656;2023-04-26T09:30:47;101956.13;;;8.65;100.00
69306;BME280;56427;51.580;4.656;2023-04-26T09:33:12;101954.06;;;8.56;100.00
69306;BME280;56427;51.580;4.656;2023-04-26T09:35:41;101957.13;;;8.93;100.00
69306;BME280;56427;51.580;4.656;2023-04-26T09:38:11;101966.13;;;9.31;100.00
69306;BME280;56427;51.580;4.656;2023-04-26T09:40:44;101971.44;;;9.29;100.00
69306;BME280;56427;51.580;4.656;2023-04-26T09:48:18;101978.16;;;9.75;93.41
69306;BME280;56427;51.580;4.656;2023-04-26T09:50:47;101973.50;;;9.94;95.83
69306;BME280;56427;51.580;4.656;2023-04-26T09:53:34;101970.31;;;10.18;85.29
69306;BME280;56427;51.580;4.656;2023-04-26T09:56:11;101978.94;;;9.63;86.66
69306;BME280;56427;51.580;4.656;2023-04-26T09:58:39;101975.59;;;9.32;89.98
69306;BME280;56427;51.580;4.656;2023-04-26T10:01:06;101968.56;;;9.63;91.38
69306;BME280;56427;51.580;4.656;2023-04-26T10:03:33;101965.75;;;9.80;86.19
69306;BME280;56427;51.580;4.656;2023-04-26T10:05:59;101963.16;;;9.80;82.63
69306;BME280;56427;51.580;4.656;2023-04-26T10:08:24;101961.63;;;10.05;84.63
69306;BME280;56427;51.580;4.656;2023-04-26T10:10:50;101953.47;;;10.11;82.60
69306;BME280;56427;51.580;4.656;2023-04-26T10:13:17;101959.06;;;10.59;78.26
69306;BME280;56427;51.580;4.656;2023-04-26T10:15:43;101957.56;;;11.21;66.16
69306;BME280;56427;51.580;4.656;2023-04-26T10:18:08;101953.59;;;10.77;70.28
69306;BME280;56427;51.580;4.656;2023-04-26T10:20:39;101952.03;;;10.74;70.75
69306;BME280;56427;51.580;4.656;2023-04-26T10:23:17;101960.38;;;11.31;73.34
69306;BME280;56427;51.580;4.656;2023-04-26T10:25:45;101960.22;;;10.13;82.32
69306;BME280;56427;51.580;4.656;2023-04-26T10:28:11;101966.88;;;10.72;83.14
69306;BME280;56427;51.580;4.656;2023-04-26T10:30:56;101958.59;;;10.80;81.57
69306;BME280;56427;51.580;4.656;2023-04-26T10:33:22;101960.22;;;10.68;79.62
69306;BME280;56427;51.580;4.656;2023-04-26T10:38:28;101953.03;;;10.31;87.75
69306;BME280;56427;51.580;4.656;2023-04-26T10:40:53;101957.88;;;10.91;85.56
69306;BME280;56427;51.580;4.656;2023-04-26T10:43:29;101959.72;;;10.36;84.11
69306;BME280;56427;51.580;4.656;2023-04-26T10:45:55;101962.97;;;10.52;84.79
69306;BME280;56427;51.580;4.656;2023-04-26T10:48:29;101960.28;;;10.26;83.57
69306;BME280;56427;51.580;4.656;2023-04-26T10:56:10;101945.91;;;10.75;81.97
69306;BME280;56427;51.580;4.656;2023-04-26T10:58:40;101928.34;;;10.66;82.20
69306;BME280;56427;51.580;4.656;2023-04-26T11:03:42;101931.78;;;10.79;80.18
69306;BME280;56427;51.580;4.656;2023-04-26T11:06:10;101927.38;;;10.54;83.33
69306;BME280;56427;51.580;4.656;2023-04-26T11:08:38;101929.56;;;10.60;85.26
69306;BME280;56427;51.580;4.656;2023-04-26T11:13:34;101918.91;;;10.78;84.57
69306;BME280;56427;51.580;4.656;2023-04-26T11:16:02;101919.09;;;10.62;79.57
69306;BME280;56427;51.580;4.656;2023-04-26T11:18:29;101929.66;;;10.59;87.17
69306;BME280;56427;51.580;4.656;2023-04-26T11:20:54;101927.97;;;10.98;80.98
69306;BME280;56427;51.580;4.656;2023-04-26T11:23:21;101928.84;;;10.58;80.58
69306;BME280;56427;51.580;4.656;2023-04-26T11:25:47;101931.09;;;10.50;81.93
69306;BME280;56427;51.580;4.656;2023-04-26T11:28:13;101933.34;;;10.82;84.07
69306;BME280;56427;51.580;4.656;2023-04-26T11:30:39;101919.72;;;10.78;80.76
69306;BME280;56427;51.580;4.656;2023-04-26T11:33:04;101923.06;;;11.32;77.45
69306;BME280;56427;51.580;4.656;2023-04-26T11:35:37;101922.66;;;11.25;77.21
69306;BME280;56427;51.580;4.656;2023-04-26T11:38:03;101920.44;;;10.80;75.42
69306;BME280;56427;51.580;4.656;2023-04-26T11:40:32;101925.53;;;10.56;77.05
69306;BME280;56427;51.580;4.656;2023-04-26T11:43:03;101917.56;;;11.11;77.76
69306;BME280;56427;51.580;4.656;2023-04-26T11:45:30;101925.88;;;10.90;75.97
69306;BME280;56427;51.580;4.656;2023-04-26T11:47:56;101929.31;;;11.16;71.81
69306;BME280;56427;51.580;4.656;2023-04-26T11:50:22;101925.66;;;11.06;73.93
69306;BME280;56427;51.580;4.656;2023-04-26T11:52:54;101929.53;;;10.88;70.20
69306;BME280;56427;51.580;4.656;2023-04-26T11:55:23;101927.88;;;10.46;71.56
69306;BME280;56427;51.580;4.656;2023-04-26T11:57:50;101938.19;;;10.48;69.51
69306;BME280;56427;51.580;4.656;2023-04-26T12:00:15;101928.22;;;10.27;69.67
69306;BME280;56427;51.580;4.656;2023-04-26T12:02:47;101927.53;;;10.11;69.97
69306;BME280;56427;51.580;4.656;2023-04-26T12:05:22;101921.94;;;9.90;74.28
69306;BME280;56427;51.580;4.656;2023-04-26T12:07:49;101925.91;;;10.50;67.96
69306;BME280;56427;51.580;4.656;2023-04-26T12:10:21;101922.53;;;9.81;69.25
69306;BME280;56427;51.580;4.656;2023-04-26T12:12:47;101920.53;;;10.53;74.26
69306;BME280;56427;51.580;4.656;2023-04-26T12:15:17;101926.50;;;10.94;69.42
69306;BME280;56427;51.580;4.656;2023-04-26T12:17:59;101919.00;;;11.28;69.16
69306;BME280;56427;51.580;4.656;2023-04-26T12:20:26;101914.69;;;11.52;69.18
69306;BME280;56427;51.580;4.656;2023-04-26T12:23:02;101916.50;;;11.13;67.15
69306;BME280;56427;51.580;4.656;2023-04-26T12:25:28;101911.56;;;11.60;67.59
69306;BME280;56427;51.580;4.656;2023-04-26T12:27:56;101920.91;;;11.63;64.23
69306;BME280;56427;51.580;4.656;2023-04-26T12:30:21;101912.09;;;11.52;63.46
69306;BME280;56427;51.580;4.656;2023-04-26T12:32:47;101910.63;;;11.61;64.17
69306;BME280;56427;51.580;4.656;2023-04-26T12:35:12;101916.56;;;12.00;63.55
69306;BME280;56427;51.580;4.656;2023-04-26T12:37:38;101920.78;;;12.14;66.94
69306;BME280;56427;51.580;4.656;2023-04-26T12:40:04;101915.75;;;12.24;64.88
69306;BME280;56427;51.580;4.656;2023-04-26T12:42:31;101918.78;;;11.81;63.17
69306;BME280;56427;51.580;4.656;2023-04-26T12:44:56;101924.50;;;11.36;66.51
69306;BME280;56427;51.580;4.656;2023-04-26T12:47:21;101932.75;;;11.79;65.41
69306;BME280;56427;51.580;4.656;2023-04-26T12:49:47;101929.50;;;11.13;67.35
69306;BME280;56427;51.580;4.656;2023-04-26T12:52:12;101922.59;;;11.64;67.47
69306;BME280;56427;51.580;4.656;2023-04-26T12:54:37;101918.31;;;11.63;69.37
69306;BME280;56427;51.580;4.656;2023-04-26T12:57:04;101933.69;;;11.16;69.18
69306;BME280;56427;51.580;4.656;2023-04-26T12:59:30;101926.69;;;11.79;67.44
69306;BME280;56427;51.580;4.656;2023-04-26T13:01:55;101930.66;;;11.35;65.84
69306;BME280;56427;51.580;4.656;2023-04-26T13:04:21;101931.47;;;11.22;71.35